Time;durP1;ratioP1;P1;durP2;ratioP2;P2;SDS_P1;SDS_P2;PMS_P1;PMS_P2;Temp;Humidity;BMP_temperature;BMP_pressure;BME280_temperature;BME280_humidity;BME280_pressure;Samples;Min_cycle;Max_cycle;Signal;HPM_P1;HPM_P2
2023/07/31 00:02:13;;;;;;;2.75;2.50;;;15.00;99.90;;;;;;4979748;28;20935;-77
2023/07/31 00:04:38;;;;;;;4.27;2.50;;;15.00;99.90;;;;;;4980130;28;20418;-78
2023/07/31 00:07:06;;;;;;;4.40;2.50;;;15.00;99.90;;;;;;4978893;28;20407;-78
2023/07/31 00:09:32;;;;;;;3.13;2.22;;;14.90;99.90;;;;;;4963023;28;20387;-78
2023/07/31 00:11:58;;;;;;;6.00;2.30;;;15.00;99.90;;;;;;4962040;28;20417;-78
2023/07/31 00:14:24;;;;;;;3.03;2.10;;;15.00;99.90;;;;;;4982953;28;20394;-78
2023/07/31 00:16:50;;;;;;;3.07;2.20;;;14.80;99.90;;;;;;4999607;28;20397;-78
2023/07/31 00:19:15;;;;;;;3.20;2.50;;;14.90;99.90;;;;;;4983630;28;20446;-79
2023/07/31 00:21:41;;;;;;;3.20;2.90;;;14.80;99.90;;;;;;4994374;28;20396;-78
2023/07/31 00:24:06;;;;;;;3.83;2.40;;;14.80;99.90;;;;;;4981979;28;20395;-79
2023/07/31 00:26:32;;;;;;;3.50;2.67;;;14.80;99.90;;;;;;4991606;28;20413;-79
2023/07/31 00:28:57;;;;;;;4.85;2.30;;;14.70;99.90;;;;;;5000962;28;20903;-79
2023/07/31 00:31:23;;;;;;;3.90;2.23;;;14.70;99.90;;;;;;5000349;28;20434;-78
2023/07/31 00:33:48;;;;;;;2.80;2.23;;;14.70;99.90;;;;;;4988430;28;20418;-80
2023/07/31 00:36:14;;;;;;;2.95;2.40;;;14.70;99.90;;;;;;4987880;28;20498;-79
2023/07/31 00:38:40;;;;;;;2.72;2.10;;;14.70;99.90;;;;;;4971178;28;20404;-79
2023/07/31 00:41:05;;;;;;;5.43;2.10;;;14.80;99.90;;;;;;4980712;28;20387;-78
2023/07/31 00:43:30;;;;;;;5.00;2.50;;;14.80;99.90;;;;;;4963254;28;20928;-79
2023/07/31 00:45:56;;;;;;;3.75;2.63;;;14.80;99.90;;;;;;4964226;28;20388;-80
2023/07/31 00:48:22;;;;;;;4.10;2.60;;;14.80;99.90;;;;;;4982974;28;20439;-79
2023/07/31 00:50:48;;;;;;;2.63;2.42;;;14.70;99.90;;;;;;4964924;28;20400;-79
2023/07/31 00:53:13;;;;;;;3.10;2.27;;;14.80;99.90;;;;;;4980303;28;20395;-79
2023/07/31 00:55:39;;;;;;;4.23;2.80;;;14.70;99.90;;;;;;5001014;28;20382;-78
2023/07/31 00:58:05;;;;;;;4.10;2.10;;;14.70;99.90;;;;;;4970698;28;20396;-78
2023/07/31 01:00:30;;;;;;;4.70;2.70;;;14.90;99.90;;;;;;4982014;28;20399;-79
2023/07/31 01:02:56;;;;;;;2.90;2.20;;;14.80;99.90;;;;;;4981263;28;20458;-79
2023/07/31 01:05:57;;;;;;;3.70;2.10;;;14.90;99.90;;;;;;4981781;28;20431;-79
2023/07/31 01:08:44;;;;;;;2.70;2.28;;;14.80;99.90;;;;;;4965259;28;20406;-78
2023/07/31 01:11:25;;;;;;;3.50;2.20;;;14.70;99.90;;;;;;4981171;28;20451;-79
2023/07/31 01:13:51;;;;;;;3.53;2.67;;;14.80;99.90;;;;;;4980446;28;20388;-79
2023/07/31 01:16:16;;;;;;;4.65;2.58;;;14.60;99.90;;;;;;4979318;28;20431;-78
2023/07/31 01:18:42;;;;;;;2.40;2.20;;;14.60;99.90;;;;;;4976652;28;20410;-77
2023/07/31 01:21:29;;;;;;;3.53;2.50;;;14.70;99.90;;;;;;4984013;28;20398;-77
2023/07/31 01:24:21;;;;;;;2.75;2.33;;;14.60;99.90;;;;;;5007518;28;20410;-76
2023/07/31 01:27:03;;;;;;;3.60;2.40;;;14.60;99.90;;;;;;4983874;28;20396;-78
2023/07/31 01:29:49;;;;;;;3.87;2.60;;;14.50;99.90;;;;;;4962308;28;20558;-78
2023/07/31 01:32:16;;;;;;;2.85;2.03;;;14.50;99.90;;;;;;4978851;28;20456;-78
2023/07/31 01:34:42;;;;;;;5.88;2.70;;;14.40;99.90;;;;;;4980766;28;20388;-77
2023/07/31 01:37:08;;;;;;;3.10;2.30;;;14.40;99.90;;;;;;4980892;28;20735;-77
2023/07/31 01:39:33;;;;;;;3.80;2.53;;;14.50;99.90;;;;;;4999220;28;20494;-78
2023/07/31 01:41:59;;;;;;;4.30;2.50;;;14.50;99.90;;;;;;4981186;28;20398;-78
2023/07/31 01:44:25;;;;;;;3.17;2.73;;;14.40;99.90;;;;;;4990278;28;20404;-77
2023/07/31 01:46:50;;;;;;;8.37;2.70;;;14.50;99.90;;;;;;4979124;28;20401;-78
2023/07/31 01:49:15;;;;;;;3.78;2.30;;;14.50;99.90;;;;;;4961658;28;20483;-78
2023/07/31 01:51:41;;;;;;;2.50;2.30;;;14.30;99.90;;;;;;4978558;28;20454;-78
2023/07/31 01:54:06;;;;;;;5.10;2.57;;;14.30;99.90;;;;;;4965610;28;20427;-77
2023/07/31 01:56:32;;;;;;;3.72;2.50;;;14.30;99.90;;;;;;4980196;28;20855;-78
2023/07/31 01:58:58;;;;;;;3.30;2.30;;;14.20;99.90;;;;;;4998209;28;20775;-78
2023/07/31 02:01:23;;;;;;;5.75;2.60;;;14.30;99.90;;;;;;4979750;28;20913;-78
2023/07/31 02:03:49;;;;;;;4.93;2.80;;;14.40;99.90;;;;;;4984683;28;20512;-76
2023/07/31 02:06:14;;;;;;;4.03;2.40;;;14.20;99.90;;;;;;4977424;28;20396;-77
2023/07/31 02:08:40;;;;;;;5.03;2.60;;;14.30;99.90;;;;;;4977983;28;20833;-78
2023/07/31 02:11:06;;;;;;;3.95;2.22;;;14.20;99.90;;;;;;4975340;28;20965;-78
2023/07/31 02:13:31;;;;;;;4.53;2.63;;;14.20;99.90;;;;;;4985712;28;20406;-78
2023/07/31 02:15:57;;;;;;;4.93;2.90;;;14.20;99.90;;;;;;5041896;23;20576;-82
2023/07/31 02:18:23;;;;;;;3.03;2.53;;;14.20;99.90;;;;;;4972541;28;20415;-82
2023/07/31 02:20:52;;;;;;;2.97;2.50;;;14.20;99.90;;;;;;4972728;28;20384;-82
2023/07/31 02:23:21;;;;;;;3.10;2.77;;;14.00;99.90;;;;;;4971300;28;20411;-82
2023/07/31 02:25:46;;;;;;;3.20;2.70;;;14.10;99.90;;;;;;4966774;28;20886;-82
2023/07/31 02:28:12;;;;;;;2.73;2.40;;;14.20;99.90;;;;;;4937967;29;20397;-82
2023/07/31 02:30:38;;;;;;;2.95;2.58;;;14.10;99.90;;;;;;4938666;29;20738;-83
2023/07/31 02:33:04;;;;;;;5.17;2.83;;;14.00;99.90;;;;;;4945648;29;20414;-81
2023/07/31 02:35:30;;;;;;;5.30;2.65;;;14.10;99.90;;;;;;4937367;29;20448;-82
2023/07/31 02:37:55;;;;;;;3.97;2.80;;;14.20;99.90;;;;;;4921603;29;20912;-83
2023/07/31 02:40:21;;;;;;;2.70;2.40;;;14.20;99.90;;;;;;4921185;29;20496;-82
2023/07/31 02:42:46;;;;;;;5.18;2.80;;;14.20;99.90;;;;;;4922865;29;20431;-82
2023/07/31 02:45:12;;;;;;;4.32;2.67;;;14.10;99.90;;;;;;4933915;29;20402;-82
2023/07/31 02:47:38;;;;;;;2.97;2.30;;;14.20;99.90;;;;;;4952759;29;20496;-82
2023/07/31 02:50:04;;;;;;;2.70;2.30;;;14.10;99.90;;;;;;4951341;29;20421;-83
2023/07/31 02:52:30;;;;;;;3.20;2.30;;;14.00;99.90;;;;;;4941656;29;20417;-83
2023/07/31 02:54:55;;;;;;;4.20;2.45;;;14.00;99.90;;;;;;4941967;29;20394;-83
2023/07/31 02:57:21;;;;;;;3.37;2.80;;;13.90;99.90;;;;;;4939635;29;20396;-83
2023/07/31 02:59:46;;;;;;;4.93;2.17;;;14.00;99.90;;;;;;4922572;29;20399;-83
2023/07/31 03:02:12;;;;;;;3.20;2.50;;;13.80;99.90;;;;;;4939147;29;20451;-84
2023/07/31 03:04:38;;;;;;;5.72;3.35;;;14.00;99.90;;;;;;4950881;29;20427;-83
2023/07/31 03:07:04;;;;;;;2.70;2.50;;;13.90;99.90;;;;;;4958019;28;20495;-82
2023/07/31 03:09:30;;;;;;;2.95;2.30;;;13.90;99.90;;;;;;4956960;29;20390;-83
2023/07/31 03:11:55;;;;;;;3.60;3.00;;;13.80;99.90;;;;;;4940238;29;20506;-83
2023/07/31 03:14:21;;;;;;;5.70;2.50;;;13.90;99.90;;;;;;4948871;29;20538;-82
2023/07/31 03:16:46;;;;;;;4.55;2.45;;;13.90;99.90;;;;;;4937530;29;20401;-83
2023/07/31 03:19:12;;;;;;;3.70;2.60;;;13.80;99.90;;;;;;4951988;29;20429;-83
2023/07/31 03:21:37;;;;;;;2.57;2.37;;;13.50;99.90;;;;;;4939067;29;20413;-82
2023/07/31 03:24:03;;;;;;;2.60;2.40;;;13.80;99.90;;;;;;4939221;29;20405;-83
2023/07/31 03:26:31;;;;;;;3.90;2.63;;;14.00;99.90;;;;;;4938756;29;20395;-82
2023/07/31 03:28:56;;;;;;;3.45;2.50;;;13.90;99.90;;;;;;4955178;29;20438;-82
2023/07/31 03:31:22;;;;;;;4.75;3.10;;;13.80;99.90;;;;;;4950767;29;20912;-83
2023/07/31 03:33:47;;;;;;;3.90;2.70;;;13.80;99.90;;;;;;4923544;29;20444;-82
2023/07/31 03:36:13;;;;;;;3.20;2.53;;;13.80;99.90;;;;;;4929669;29;20410;-82
2023/07/31 03:38:39;;;;;;;3.63;2.30;;;13.80;99.90;;;;;;4935588;29;20414;-82
2023/07/31 03:41:06;;;;;;;2.93;2.40;;;13.70;99.90;;;;;;4935407;29;20392;-84
2023/07/31 03:43:33;;;;;;;3.50;2.20;;;13.80;99.90;;;;;;4952697;29;20467;-82
2023/07/31 03:45:59;;;;;;;2.45;2.10;;;13.80;99.90;;;;;;4962857;28;20428;-83
2023/07/31 03:48:25;;;;;;;5.35;2.50;;;13.80;99.90;;;;;;4951070;29;20394;-83
2023/07/31 03:50:50;;;;;;;4.03;2.55;;;13.90;99.90;;;;;;4941067;29;20399;-83
2023/07/31 03:53:16;;;;;;;3.77;2.63;;;14.00;99.90;;;;;;4922653;29;20396;-83
2023/07/31 03:55:41;;;;;;;3.30;2.60;;;14.00;99.90;;;;;;4939367;29;21004;-84
2023/07/31 03:58:07;;;;;;;6.38;2.70;;;14.10;99.90;;;;;;4939376;29;20455;-83
2023/07/31 04:00:33;;;;;;;3.30;2.60;;;14.00;99.90;;;;;;4956730;29;20429;-84
2023/07/31 04:02:58;;;;;;;4.40;2.70;;;13.80;99.90;;;;;;4944607;29;20407;-83
2023/07/31 04:05:24;;;;;;;3.33;2.50;;;13.80;99.90;;;;;;4922559;29;20404;-83
2023/07/31 04:07:49;;;;;;;3.00;2.50;;;13.80;99.90;;;;;;4921306;29;20796;-84
2023/07/31 04:10:15;;;;;;;4.90;2.50;;;13.80;99.90;;;;;;4938334;29;20876;-83
2023/07/31 04:12:40;;;;;;;2.88;2.58;;;13.90;99.90;;;;;;4943828;29;20467;-84
2023/07/31 04:15:07;;;;;;;2.33;2.10;;;13.90;99.90;;;;;;4936951;29;20403;-83
2023/07/31 04:17:32;;;;;;;3.47;2.10;;;13.80;99.90;;;;;;4950773;28;20404;-83
2023/07/31 04:19:58;;;;;;;4.90;2.28;;;13.70;99.90;;;;;;4941685;28;20419;-83
2023/07/31 04:22:23;;;;;;;2.53;2.17;;;13.80;99.90;;;;;;4959493;28;20387;-84
2023/07/31 04:24:49;;;;;;;2.23;2.03;;;13.80;99.90;;;;;;4955764;28;20411;-84
2023/07/31 04:27:14;;;;;;;3.67;2.65;;;13.80;99.90;;;;;;4922974;29;20403;-84
2023/07/31 04:29:42;;;;;;;2.97;2.67;;;14.20;99.90;;;;;;4921708;29;20391;-83
2023/07/31 04:32:08;;;;;;;2.38;1.90;;;13.80;99.90;;;;;;4936647;29;20911;-83
2023/07/31 04:34:33;;;;;;;4.00;2.60;;;13.90;99.90;;;;;;4907107;29;20468;-83
2023/07/31 04:36:59;;;;;;;4.78;2.40;;;13.90;99.90;;;;;;4936936;29;20978;-83
2023/07/31 04:39:24;;;;;;;3.40;2.03;;;14.10;99.90;;;;;;4957395;29;20416;-82
2023/07/31 04:41:50;;;;;;;3.75;2.40;;;13.90;99.90;;;;;;4956677;29;20399;-83
2023/07/31 04:44:15;;;;;;;2.87;2.50;;;14.00;99.90;;;;;;4957046;29;20398;-83
2023/07/31 04:46:41;;;;;;;3.60;2.73;;;14.00;99.90;;;;;;4926802;29;20473;-83
2023/07/31 04:49:06;;;;;;;5.80;2.60;;;14.10;99.90;;;;;;4941487;29;20482;-84
2023/07/31 04:51:32;;;;;;;3.20;2.40;;;14.20;99.90;;;;;;4928598;29;20471;-83
2023/07/31 04:53:57;;;;;;;5.30;2.60;;;14.10;99.90;;;;;;4942675;29;20492;-84
2023/07/31 04:56:23;;;;;;;2.30;2.10;;;14.30;99.90;;;;;;4959491;28;20905;-82
2023/07/31 04:58:48;;;;;;;3.30;2.30;;;14.30;99.90;;;;;;4958809;29;20799;-83
2023/07/31 05:01:14;;;;;;;3.30;2.17;;;14.30;99.90;;;;;;4957075;29;20404;-84
2023/07/31 05:03:40;;;;;;;4.50;2.73;;;14.40;99.90;;;;;;4932655;29;20950;-83
2023/07/31 05:06:05;;;;;;;3.27;2.50;;;14.30;99.90;;;;;;4942422;29;20485;-83
2023/07/31 05:08:31;;;;;;;3.20;2.40;;;14.20;99.90;;;;;;4959732;29;20425;-82
2023/07/31 05:10:56;;;;;;;3.80;2.20;;;14.50;99.90;;;;;;4956312;29;20960;-83
2023/07/31 05:13:22;;;;;;;3.63;2.23;;;14.50;99.90;;;;;;4942197;29;20396;-82
2023/07/31 05:15:49;;;;;;;4.15;2.20;;;14.60;99.90;;;;;;4958825;28;20425;-84
2023/07/31 05:18:15;;;;;;;3.85;2.20;;;14.40;99.90;;;;;;4942043;29;20457;-83
2023/07/31 05:20:40;;;;;;;3.90;2.40;;;14.50;99.90;;;;;;4958998;29;20802;-83
2023/07/31 05:23:06;;;;;;;5.40;2.63;;;14.60;99.90;;;;;;4959758;29;20433;-84
2023/07/31 05:25:32;;;;;;;4.10;2.50;;;14.60;99.90;;;;;;4940438;29;20536;-83
2023/07/31 05:27:57;;;;;;;3.50;2.40;;;14.60;99.90;;;;;;4923296;29;20442;-83
2023/07/31 05:30:23;;;;;;;3.30;2.53;;;14.60;99.90;;;;;;4922600;29;20423;-82
2023/07/31 05:32:49;;;;;;;3.30;2.00;;;14.80;99.90;;;;;;4949969;29;20411;-83
2023/07/31 05:35:14;;;;;;;3.87;2.47;;;14.80;99.90;;;;;;4940265;29;20396;-83
2023/07/31 05:37:40;;;;;;;3.03;2.30;;;14.80;99.90;;;;;;4939664;29;20388;-83
2023/07/31 05:40:06;;;;;;;3.30;2.30;;;15.00;99.90;;;;;;4922241;29;20520;-82
2023/07/31 05:42:31;;;;;;;3.42;2.53;;;15.00;99.90;;;;;;4951213;29;20420;-83
2023/07/31 05:44:57;;;;;;;3.80;2.30;;;14.90;99.90;;;;;;4924883;29;20412;-83
2023/07/31 05:47:22;;;;;;;3.30;2.40;;;15.20;99.90;;;;;;4939009;29;20468;-83
2023/07/31 05:49:49;;;;;;;2.53;1.95;;;15.30;99.90;;;;;;4927871;29;20408;-83
2023/07/31 05:52:15;;;;;;;4.80;2.00;;;15.30;99.90;;;;;;4956508;29;20441;-83
2023/07/31 05:54:41;;;;;;;3.10;2.00;;;16.00;99.90;;;;;;4940808;29;20814;-84
2023/07/31 05:57:07;;;;;;;2.30;1.60;;;16.00;99.90;;;;;;4941998;29;20481;-82
2023/07/31 05:59:33;;;;;;;2.63;1.60;;;16.50;99.90;;;;;;4954522;28;20489;-84
2023/07/31 06:01:59;;;;;;;2.90;1.73;;;16.80;99.90;;;;;;4926340;29;20411;-84
2023/07/31 06:04:25;;;;;;;3.80;1.90;;;16.90;99.90;;;;;;4938618;29;20399;-83
2023/07/31 06:06:51;;;;;;;3.95;1.63;;;17.00;99.90;;;;;;4921925;29;20403;-84
2023/07/31 06:09:16;;;;;;;4.30;1.92;;;17.20;99.90;;;;;;4930759;29;20513;-83
2023/07/31 06:11:42;;;;;;;4.40;1.80;;;17.30;99.90;;;;;;4957503;29;20912;-82
2023/07/31 06:14:07;;;;;;;3.00;1.90;;;17.40;99.90;;;;;;4941169;29;20811;-83
2023/07/31 06:16:33;;;;;;;2.40;1.70;;;17.60;99.90;;;;;;4957135;28;20445;-83
2023/07/31 06:18:58;;;;;;;5.10;2.57;;;17.70;99.90;;;;;;4934932;29;20922;-83
2023/07/31 06:21:24;;;;;;;2.35;1.63;;;17.70;99.90;;;;;;4939620;29;20393;-83
2023/07/31 06:23:49;;;;;;;3.03;1.90;;;17.80;99.90;;;;;;4946568;29;20417;-83
2023/07/31 06:26:15;;;;;;;2.90;1.80;;;17.90;99.90;;;;;;4939080;29;20396;-82
2023/07/31 06:28:40;;;;;;;6.00;1.70;;;17.90;99.90;;;;;;4955222;29;20429;-83
2023/07/31 06:31:06;;;;;;;3.60;2.00;;;17.90;99.90;;;;;;4929446;29;20435;-82
2023/07/31 06:33:31;;;;;;;3.67;1.50;;;17.90;99.90;;;;;;4929406;29;20464;-83
2023/07/31 06:35:57;;;;;;;3.90;1.70;;;18.00;99.90;;;;;;4902662;29;20484;-83
2023/07/31 06:38:25;;;;;;;2.05;1.50;;;18.10;99.90;;;;;;4901413;29;20488;-82
2023/07/31 06:40:50;;;;;;;4.57;2.20;;;18.10;99.90;;;;;;4941519;29;20498;-82
2023/07/31 06:43:16;;;;;;;4.72;2.10;;;18.20;99.90;;;;;;4957311;29;20417;-83
2023/07/31 06:45:42;;;;;;;4.60;2.23;;;18.10;99.90;;;;;;4957625;28;20897;-82
2023/07/31 06:48:07;;;;;;;3.57;2.30;;;18.10;99.90;;;;;;4939084;29;20398;-82
2023/07/31 06:50:33;;;;;;;4.13;2.10;;;18.20;99.90;;;;;;4947093;29;20407;-82
2023/07/31 06:52:59;;;;;;;4.10;2.30;;;18.20;99.90;;;;;;4919880;29;20556;-84
2023/07/31 06:55:25;;;;;;;4.90;2.40;;;18.30;99.90;;;;;;4920237;29;20953;-82
2023/07/31 06:57:53;;;;;;;3.55;2.70;;;18.30;99.90;;;;;;4949854;29;20405;-83
2023/07/31 07:00:19;;;;;;;4.85;2.70;;;18.30;99.90;;;;;;4956735;29;20418;-82
2023/07/31 07:02:47;;;;;;;4.90;3.00;;;18.40;99.90;;;;;;4956325;29;20389;-82
2023/07/31 07:05:13;;;;;;;4.15;2.50;;;18.40;99.90;;;;;;4958051;28;20421;-83
2023/07/31 07:07:39;;;;;;;3.10;2.20;;;18.50;99.90;;;;;;4933494;29;20402;-81
2023/07/31 07:10:05;;;;;;;5.60;2.67;;;18.40;99.90;;;;;;4939289;29;20402;-84
2023/07/31 07:12:32;;;;;;;3.67;1.95;;;18.40;99.90;;;;;;4940188;29;20410;-84
2023/07/31 07:14:57;;;;;;;3.28;1.90;;;18.40;99.90;;;;;;4961475;29;20390;-85
2023/07/31 07:17:24;;;;;;;4.57;1.90;;;18.50;99.90;;;;;;4958148;28;20418;-81
2023/07/31 07:19:50;;;;;;;3.50;2.00;;;18.20;99.90;;;;;;4940414;29;20413;-81
2023/07/31 07:22:15;;;;;;;3.75;1.95;;;18.40;99.90;;;;;;4928215;29;20616;-84
2023/07/31 07:24:41;;;;;;;3.78;2.08;;;18.40;99.90;;;;;;4953078;29;20489;-83
2023/07/31 07:27:06;;;;;;;3.80;1.87;;;18.50;99.90;;;;;;4965966;28;20394;-84
2023/07/31 07:29:34;;;;;;;2.70;1.80;;;18.60;99.90;;;;;;4930616;29;20415;-83
2023/07/31 07:32:00;;;;;;;2.60;2.00;;;18.50;99.90;;;;;;4942426;29;20921;-83
2023/07/31 07:34:27;;;;;;;2.93;1.83;;;18.50;99.90;;;;;;4925555;29;20459;-84
2023/07/31 07:36:53;;;;;;;6.93;1.83;;;18.60;99.90;;;;;;4956576;28;20522;-84
2023/07/31 07:39:19;;;;;;;3.25;1.80;;;18.70;99.90;;;;;;4947274;29;20919;-83
2023/07/31 07:41:44;;;;;;;3.50;2.10;;;18.70;99.90;;;;;;4965901;29;20393;-83
2023/07/31 07:44:10;;;;;;;3.90;1.73;;;18.80;99.90;;;;;;4963268;29;20394;-82
2023/07/31 07:46:35;;;;;;;4.78;1.70;;;18.90;99.90;;;;;;4936915;29;20804;-82
2023/07/31 07:49:01;;;;;;;3.73;1.60;;;18.90;99.90;;;;;;4928543;29;20399;-83
2023/07/31 07:51:26;;;;;;;3.43;1.90;;;19.00;99.90;;;;;;4927249;29;20421;-84
2023/07/31 07:53:52;;;;;;;2.22;1.80;;;19.20;99.90;;;;;;4954058;29;20441;-81
2023/07/31 07:56:17;;;;;;;2.90;1.63;;;19.40;99.90;;;;;;4962863;28;20433;-82
2023/07/31 07:58:43;;;;;;;3.15;1.70;;;19.30;99.90;;;;;;4942263;29;20770;-82
2023/07/31 08:01:08;;;;;;;2.80;1.40;;;19.50;99.90;;;;;;4942123;29;20390;-82
2023/07/31 08:03:34;;;;;;;2.00;1.60;;;19.50;99.90;;;;;;4952272;29;20399;-81
2023/07/31 08:06:00;;;;;;;2.28;1.50;;;19.50;99.90;;;;;;4941725;29;20427;-83
2023/07/31 08:08:26;;;;;;;2.45;1.67;;;19.60;99.90;;;;;;4951207;29;20398;-82
2023/07/31 08:10:52;;;;;;;2.20;1.30;;;19.50;99.90;;;;;;4961149;29;20428;-82
2023/07/31 08:13:17;;;;;;;2.72;1.50;;;19.50;99.90;;;;;;4946267;29;20406;-84
2023/07/31 08:15:43;;;;;;;2.13;1.70;;;19.60;99.90;;;;;;4965317;28;20473;-79
2023/07/31 08:18:09;;;;;;;2.83;1.88;;;19.60;99.90;;;;;;4958702;29;20418;-82
2023/07/31 08:20:35;;;;;;;3.58;1.65;;;19.60;99.90;;;;;;4928094;29;20927;-80
2023/07/31 08:23:00;;;;;;;5.20;1.65;;;19.40;99.90;;;;;;4944111;29;20565;-80
2023/07/31 08:25:26;;;;;;;3.93;1.83;;;19.50;99.90;;;;;;4964260;28;20394;-81
2023/07/31 08:27:52;;;;;;;2.50;1.60;;;19.40;99.90;;;;;;4966518;29;20878;-80
2023/07/31 08:30:19;;;;;;;3.87;1.60;;;19.40;99.90;;;;;;4949283;29;20405;-80
2023/07/31 08:32:44;;;;;;;1.65;1.30;;;19.60;99.90;;;;;;4950942;29;20443;-79
2023/07/31 08:35:10;;;;;;;3.37;1.67;;;19.70;99.90;;;;;;4946644;29;20804;-79
2023/07/31 08:37:36;;;;;;;3.50;1.60;;;19.80;99.90;;;;;;4946610;29;20407;-81
2023/07/31 08:40:02;;;;;;;5.10;1.80;;;19.70;99.90;;;;;;4929328;29;20508;-80
2023/07/31 08:42:27;;;;;;;2.28;1.17;;;19.80;99.90;;;;;;4929400;29;20406;-81
2023/07/31 08:44:55;;;;;;;3.13;1.90;;;19.90;99.90;;;;;;4928562;29;20490;-79
2023/07/31 08:47:21;;;;;;;2.20;1.55;;;19.90;99.90;;;;;;4928424;29;20427;-79
2023/07/31 08:49:47;;;;;;;2.00;1.15;;;20.00;99.90;;;;;;4965867;29;20416;-80
2023/07/31 08:52:13;;;;;;;3.50;1.45;;;20.00;99.90;;;;;;4947081;29;20406;-80
2023/07/31 08:54:39;;;;;;;4.97;1.80;;;20.10;99.90;;;;;;4961978;29;20404;-80
2023/07/31 08:57:06;;;;;;;2.97;1.65;;;20.20;99.90;;;;;;4929626;29;20467;-82
2023/07/31 08:59:34;;;;;;;3.63;2.22;;;20.30;99.90;;;;;;4930331;29;20392;-81
2023/07/31 09:02:06;;;;;;;3.13;1.60;;;20.30;99.90;;;;;;4930069;29;20392;-78
2023/07/31 09:04:32;;;;;;;2.47;1.58;;;20.30;99.90;;;;;;4929545;29;20471;-79
2023/07/31 09:07:01;;;;;;;2.70;1.73;;;20.30;99.90;;;;;;4952644;28;20427;-82
2023/07/31 09:09:27;;;;;;;2.28;1.30;;;20.40;99.90;;;;;;4933486;29;20427;-80
2023/07/31 09:11:53;;;;;;;3.53;1.98;;;20.20;99.90;;;;;;4932696;29;20412;-81
2023/07/31 09:14:19;;;;;;;3.80;2.13;;;20.40;99.90;;;;;;4929827;29;20450;-80
2023/07/31 09:16:59;;;;;;;4.60;2.00;;;21.10;99.90;;;;;;4962004;28;20408;-79
2023/07/31 09:19:33;;;;;;;2.50;1.70;;;20.40;99.90;;;;;;4943468;29;20406;-82
2023/07/31 09:21:59;;;;;;;3.08;1.80;;;20.70;99.90;;;;;;4963630;29;20390;-81
2023/07/31 09:24:30;;;;;;;3.40;2.20;;;20.50;99.90;;;;;;4949584;29;20408;-81
2023/07/31 09:26:56;;;;;;;3.45;1.77;;;20.40;99.90;;;;;;4931860;29;20815;-81
2023/07/31 09:29:23;;;;;;;1.80;1.50;;;20.40;99.90;;;;;;4945026;29;20399;-80
2023/07/31 09:31:48;;;;;;;4.03;1.90;;;20.40;99.90;;;;;;4928944;29;20430;-80
2023/07/31 09:34:14;;;;;;;3.47;2.13;;;20.40;99.90;;;;;;4943012;29;20407;-79
2023/07/31 09:36:45;;;;;;;4.00;2.20;;;20.50;99.90;;;;;;4929071;29;20387;-80
2023/07/31 09:39:12;;;;;;;4.63;2.20;;;20.40;99.90;;;;;;4944022;29;20474;-79
2023/07/31 09:41:46;;;;;;;3.90;1.60;;;21.30;99.90;;;;;;4940576;29;20408;-80
2023/07/31 09:44:12;;;;;;;2.00;1.58;;;20.50;99.90;;;;;;4962749;29;20396;-82
2023/07/31 09:46:37;;;;;;;3.65;2.20;;;20.60;99.90;;;;;;4946295;29;20839;-80
2023/07/31 09:49:11;;;;;;;4.40;1.90;;;20.70;99.90;;;;;;4946465;29;20389;-80
2023/07/31 09:51:41;;;;;;;4.20;1.70;;;20.90;99.90;;;;;;4950444;29;20462;-79
2023/07/31 09:54:15;;;;;;;2.38;1.50;;;21.00;99.90;;;;;;4924163;29;20455;-80
2023/07/31 09:56:46;;;;;;;5.00;2.00;;;21.00;99.90;;;;;;4942589;29;20412;-78
2023/07/31 09:59:17;;;;;;;3.45;1.70;;;21.10;99.90;;;;;;4946349;29;20390;-81
2023/07/31 10:01:43;;;;;;;2.90;1.58;;;21.10;99.90;;;;;;4945118;29;20814;-81
2023/07/31 10:04:10;;;;;;;4.80;1.85;;;21.10;99.90;;;;;;4943337;29;20492;-81
2023/07/31 10:06:37;;;;;;;4.80;2.00;;;21.00;99.90;;;;;;4961189;28;20449;-81
2023/07/31 10:09:05;;;;;;;2.60;2.10;;;21.10;99.90;;;;;;4942507;29;20463;-81
2023/07/31 10:11:38;;;;;;;2.95;1.73;;;20.60;99.90;;;;;;4956394;29;20826;-79
2023/07/31 10:14:05;;;;;;;2.88;1.92;;;21.20;99.90;;;;;;4944368;29;20400;-80
2023/07/31 10:16:31;;;;;;;3.80;2.28;;;21.30;99.90;;;;;;4961565;28;20433;-79
2023/07/31 10:18:58;;;;;;;2.35;1.60;;;21.20;99.90;;;;;;4960072;29;20401;-82
2023/07/31 10:21:24;;;;;;;3.35;1.80;;;21.30;99.90;;;;;;4955968;29;20401;-78
2023/07/31 10:23:51;;;;;;;2.30;1.40;;;21.40;99.90;;;;;;4961250;29;20757;-79
2023/07/31 10:26:19;;;;;;;3.50;1.60;;;21.50;99.90;;;;;;4964665;28;20420;-82
2023/07/31 10:28:46;;;;;;;2.72;1.90;;;21.70;99.90;;;;;;4945630;29;20397;-79
2023/07/31 10:31:13;;;;;;;4.18;1.95;;;21.50;99.90;;;;;;4933814;29;20980;-79
2023/07/31 10:33:39;;;;;;;5.43;2.13;;;21.50;99.90;;;;;;4930201;29;20398;-80
2023/07/31 10:36:19;;;;;;;3.90;2.00;;;21.90;99.90;;;;;;4922430;29;21100;-80
2023/07/31 10:38:45;;;;;;;2.20;1.83;;;21.90;99.90;;;;;;4937671;29;20419;-82
2023/07/31 10:41:11;;;;;;;4.40;1.80;;;22.00;99.90;;;;;;4942601;29;20398;-80
2023/07/31 10:43:37;;;;;;;3.20;1.63;;;22.90;99.90;;;;;;4939553;29;20388;-81
2023/07/31 10:46:12;;;;;;;4.65;2.22;;;22.50;99.90;;;;;;4938947;29;20392;-83
2023/07/31 10:48:41;;;;;;;2.97;1.80;;;22.10;99.90;;;;;;4923965;29;20408;-79
2023/07/31 10:51:09;;;;;;;3.65;2.03;;;22.30;99.90;;;;;;4922616;29;20391;-80
2023/07/31 10:53:36;;;;;;;4.30;2.50;;;22.00;99.90;;;;;;4942405;29;20411;-80
2023/07/31 10:56:04;;;;;;;4.03;2.03;;;22.30;99.90;;;;;;4960477;28;20389;-78
2023/07/31 10:58:32;;;;;;;3.10;1.70;;;22.10;99.90;;;;;;4957583;29;20882;-82
2023/07/31 11:01:05;;;;;;;2.55;2.00;;;21.90;99.90;;;;;;4941750;29;20473;-83
2023/07/31 11:03:48;;;;;;;3.72;1.70;;;22.10;99.90;;;;;;4957927;29;20549;-79
2023/07/31 11:06:15;;;;;;;3.67;1.60;;;21.30;99.90;;;;;;4910901;29;20437;-80
2023/07/31 11:08:43;;;;;;;5.50;1.85;;;22.20;99.90;;;;;;4940025;29;20489;-83
2023/07/31 11:11:14;;;;;;;3.53;1.85;;;22.20;99.90;;;;;;4956609;29;20457;-81
2023/07/31 11:13:45;;;;;;;3.85;1.80;;;22.10;99.90;;;;;;4956130;29;20389;-81
2023/07/31 11:16:12;;;;;;;3.28;1.65;;;22.10;99.90;;;;;;4955154;28;20502;-80
2023/07/31 11:18:42;;;;;;;4.32;2.10;;;22.10;99.90;;;;;;4939439;29;20481;-82
2023/07/31 11:21:19;;;;;;;2.20;1.85;;;22.10;99.90;;;;;;4957764;29;20794;-79
2023/07/31 11:23:50;;;;;;;4.50;2.35;;;22.10;99.90;;;;;;4940387;29;20944;-78
2023/07/31 11:26:17;;;;;;;4.95;1.88;;;22.00;99.90;;;;;;4934593;29;20415;-82
2023/07/31 11:28:43;;;;;;;5.55;2.40;;;22.00;99.90;;;;;;4936178;29;20933;-79
2023/07/31 11:31:11;;;;;;;3.23;1.80;;;22.10;99.90;;;;;;4937103;29;20402;-78
2023/07/31 11:33:37;;;;;;;3.50;1.90;;;22.50;99.90;;;;;;4925506;29;20385;-81
2023/07/31 11:36:03;;;;;;;4.20;2.13;;;22.60;99.90;;;;;;4920772;29;20429;-79
2023/07/31 11:38:29;;;;;;;5.10;2.00;;;22.50;99.90;;;;;;4941855;29;20406;-81
2023/07/31 11:40:59;;;;;;;2.50;1.80;;;21.50;99.90;;;;;;4940513;29;20394;-78
2023/07/31 11:43:26;;;;;;;3.15;1.83;;;22.20;99.90;;;;;;4941065;29;20398;-80
2023/07/31 11:45:54;;;;;;;4.50;1.70;;;22.00;99.90;;;;;;4937803;29;20411;-80
2023/07/31 11:48:26;;;;;;;3.28;2.10;;;22.30;99.90;;;;;;4939842;29;20887;-81
2023/07/31 11:50:53;;;;;;;6.03;2.30;;;22.20;99.90;;;;;;4923594;29;20430;-80
2023/07/31 11:53:28;;;;;;;4.55;2.00;;;22.30;99.90;;;;;;4922896;29;20415;-80
2023/07/31 11:55:55;;;;;;;3.42;1.90;;;22.40;99.90;;;;;;4953157;28;20408;-81
2023/07/31 11:58:21;;;;;;;4.22;2.20;;;22.50;99.90;;;;;;4944496;29;20394;-81
2023/07/31 12:00:47;;;;;;;2.20;2.00;;;23.10;99.90;;;;;;4943171;29;20416;-78
2023/07/31 12:03:13;;;;;;;3.72;2.10;;;23.50;99.90;;;;;;4963251;29;20425;-80
2023/07/31 12:05:39;;;;;;;4.20;2.00;;;24.20;99.90;;;;;;4943169;29;20767;-81
2023/07/31 12:08:11;;;;;;;4.17;2.27;;;25.00;99.90;;;;;;4959112;29;20492;-83
2023/07/31 12:10:37;;;;;;;3.33;1.90;;;25.20;99.90;;;;;;4959164;29;20735;-78
2023/07/31 12:13:13;;;;;;;3.08;1.80;;;24.80;99.90;;;;;;4950976;29;20426;-79
2023/07/31 12:15:43;;;;;;;3.30;2.30;;;24.80;99.90;;;;;;4941290;29;20495;-80
2023/07/31 12:18:14;;;;;;;3.20;1.98;;;25.10;99.90;;;;;;4925931;29;21133;-79
2023/07/31 12:20:57;;;;;;;4.70;2.20;;;25.10;99.90;;;;;;4938496;29;20438;-81
2023/07/31 12:23:29;;;;;;;3.28;1.60;;;24.60;99.90;;;;;;4950474;29;20413;-79
2023/07/31 12:26:01;;;;;;;2.80;1.90;;;25.00;99.90;;;;;;4958918;29;20422;-81
2023/07/31 12:28:26;;;;;;;2.50;2.10;;;24.70;99.90;;;;;;4973461;29;20401;-82
2023/07/31 12:30:58;;;;;;;3.50;2.00;;;24.70;99.90;;;;;;4971593;29;20770;-80
2023/07/31 12:33:23;;;;;;;5.63;2.17;;;24.60;99.90;;;;;;4956121;29;20421;-78
2023/07/31 12:35:49;;;;;;;2.20;1.75;;;24.60;99.90;;;;;;4940886;29;20461;-79
2023/07/31 12:38:14;;;;;;;3.53;2.50;;;24.90;99.90;;;;;;4922641;29;20400;-79
2023/07/31 12:40:41;;;;;;;3.75;2.30;;;25.00;99.90;;;;;;4938898;29;20433;-78
2023/07/31 12:43:08;;;;;;;3.05;2.30;;;25.00;99.90;;;;;;4956395;29;20462;-79
2023/07/31 12:45:35;;;;;;;4.47;2.00;;;24.70;99.90;;;;;;4969384;28;20921;-78
2023/07/31 12:48:01;;;;;;;3.75;2.30;;;25.30;99.90;;;;;;4972836;29;20405;-80